createdAt,value
2023-01-20T00:00:29.373Z,101184.72
2023-01-20T00:02:56.508Z,101191.63
2023-01-20T00:05:23.658Z,101187.28
2023-01-20T00:07:50.700Z,101191.41
2023-01-20T00:10:18.151Z,101201.91
2023-01-20T00:12:45.131Z,101202.09
2023-01-20T00:15:12.682Z,101193.22
2023-01-20T00:17:39.798Z,101203.47
2023-01-20T00:20:07.190Z,101190.06
2023-01-20T00:22:34.518Z,101195.38
2023-01-20T00:25:01.406Z,101197.94
2023-01-20T00:27:28.342Z,101197.56
2023-01-20T00:29:55.225Z,101203.28
2023-01-20T00:32:22.059Z,101207.03
2023-01-20T00:34:48.863Z,101202.28
2023-01-20T00:37:15.610Z,101207.78
2023-01-20T00:39:42.393Z,101216.66
2023-01-20T00:42:09.232Z,101210.56
2023-01-20T00:44:36.827Z,101217.25
2023-01-20T00:47:03.754Z,101215.69
2023-01-20T00:49:30.666Z,101219.81
2023-01-20T00:51:57.532Z,101222.63
2023-01-20T00:54:24.366Z,101217.69
2023-01-20T00:56:51.273Z,101217.88
2023-01-20T00:59:18.112Z,101225.97
2023-01-20T01:01:46.460Z,101226.56
2023-01-20T01:04:13.549Z,101234.41
2023-01-20T01:06:40.516Z,101235.44
2023-01-20T01:09:07.367Z,101231.84
2023-01-20T01:11:34.215Z,101239.75
2023-01-20T01:14:01.098Z,101246.69
2023-01-20T01:16:28.024Z,101241.31
2023-01-20T01:18:55.901Z,101239.34
2023-01-20T01:21:23.212Z,101239.75
2023-01-20T01:23:52.049Z,101240.34
2023-01-20T01:26:19.223Z,101245.69
2023-01-20T01:28:49.260Z,101245.28
2023-01-20T01:31:17.788Z,101248.44
2023-01-20T01:33:45.618Z,101253.97
2023-01-20T01:36:14.754Z,101249.22
2023-01-20T01:38:41.856Z,101255.53
2023-01-20T01:41:11.798Z,101255.91
2023-01-20T01:43:39.683Z,101252.16
2023-01-20T01:46:07.724Z,101252.38
2023-01-20T01:48:43.930Z,101257.28
2023-01-20T01:51:19.413Z,101250.19
2023-01-20T01:54:03.307Z,101256.47
2023-01-20T01:56:31.116Z,101272.69
2023-01-20T01:59:02.082Z,101275.25
2023-01-20T02:01:29.976Z,101275.84
2023-01-20T02:04:10.704Z,101269.72
2023-01-20T02:06:41.436Z,101271.31
2023-01-20T02:09:08.883Z,101283.13
2023-01-20T02:11:40.251Z,101274.47
2023-01-20T02:14:08.733Z,101288.28
2023-01-20T02:16:44.702Z,101291.44
2023-01-20T02:19:36.099Z,101281.97
2023-01-20T02:22:23.325Z,101283.72
2023-01-20T02:24:53.303Z,101282.75
2023-01-20T02:28:00.730Z,101285.13
2023-01-20T02:30:43.236Z,101280.78
2023-01-20T02:33:35.808Z,101288.28
2023-01-20T02:36:04.965Z,101292.41
2023-01-20T02:38:58.714Z,101295.75
2023-01-20T02:41:34.647Z,101297.34
2023-01-20T02:44:29.768Z,101291.63
2023-01-20T02:47:12.364Z,101291.63
2023-01-20T02:50:02.688Z,101287.88
2023-01-20T02:52:40.938Z,101290.25
2023-01-20T02:55:14.747Z,101287.88
2023-01-20T02:57:49.775Z,101292.41
2023-01-20T03:00:27.706Z,101282.34
2023-01-20T03:06:05.463Z,101281.94
2023-01-20T03:31:04.060Z,101308.59
2023-01-20T03:33:55.291Z,101315.28
2023-01-20T03:48:35.549Z,101307.19
2023-01-20T07:51:03.548Z,101404.78
2023-01-20T07:53:32.157Z,101402.22
2023-01-20T07:56:04.880Z,101412.28
2023-01-20T07:58:31.915Z,101408.16
2023-01-20T08:01:16.520Z,101422.97
2023-01-20T08:03:44.628Z,101419.59
2023-01-20T08:06:14.603Z,101424.53
2023-01-20T08:08:41.911Z,101428.09
2023-01-20T08:11:11.184Z,101422.56
2023-01-20T08:13:40.449Z,101419.00
2023-01-20T08:16:10.551Z,101426.09
2023-01-20T08:18:38.009Z,101426.50
2023-01-20T08:21:08.434Z,101427.88
2023-01-20T08:23:36.884Z,101427.88
2023-01-20T08:26:06.574Z,101436.59
2023-01-20T08:28:35.596Z,101439.75
2023-01-20T08:31:12.076Z,101437.97
2023-01-20T08:33:40.067Z,101441.13
2023-01-20T08:36:13.132Z,101448.63
2023-01-20T08:38:40.948Z,101449.03
2023-01-20T08:41:14.080Z,101451.03
2023-01-20T08:43:41.233Z,101446.66
2023-01-20T08:46:11.624Z,101448.63
2023-01-20T08:48:40.250Z,101453.38
2023-01-20T08:51:14.466Z,101454.94
2023-01-20T08:53:41.937Z,101467.59
2023-01-20T08:56:10.246Z,101468.78
2023-01-20T08:58:37.432Z,101464.44
2023-01-20T09:01:13.058Z,101466.81
2023-01-20T09:12:20.896Z,101478.09
2023-01-20T09:22:56.430Z,101493.88
2023-01-20T09:25:26.028Z,101490.91
2023-01-20T09:27:53.249Z,101490.50
2023-01-20T09:30:20.773Z,101500.41
2023-01-20T09:32:50.448Z,101501.59
2023-01-20T09:35:21.278Z,101500.78
2023-01-20T09:38:08.929Z,101508.72
2023-01-20T09:41:03.006Z,101511.47
2023-01-20T09:47:21.980Z,101512.06
2023-01-20T09:50:45.523Z,101524.53
2023-01-20T09:53:40.175Z,101525.31
2023-01-20T09:56:14.869Z,101523.94
2023-01-20T09:59:06.488Z,101534.41
2023-01-20T10:01:37.885Z,101533.03
2023-01-20T10:04:15.729Z,101534.81
2023-01-20T10:06:56.813Z,101537.38
2023-01-20T10:09:23.674Z,101537.56
2023-01-20T10:11:53.384Z,101544.50
2023-01-20T10:14:35.337Z,101540.13
2023-01-20T10:17:15.014Z,101551.78
2023-01-20T10:19:50.603Z,101557.53
2023-01-20T10:22:28.353Z,101553.38
2023-01-20T10:24:59.534Z,101554.16
2023-01-20T10:27:30.090Z,101552.19
2023-01-20T10:30:10.061Z,101550.81
2023-01-20T10:32:39.840Z,101560.13
2023-01-20T10:35:17.225Z,101553.97
2023-01-20T10:37:44.573Z,101562.09
2023-01-20T10:40:24.409Z,101559.69
2023-01-20T10:42:59.274Z,101566.81
2023-01-20T10:45:58.002Z,101567.19
2023-01-20T10:48:52.727Z,101568.00
2023-01-20T10:51:33.694Z,101561.69
2023-01-20T10:54:43.647Z,101561.28
2023-01-20T10:57:15.411Z,101558.69
2023-01-20T10:59:53.716Z,101550.97
2023-01-20T11:02:35.147Z,101555.75
2023-01-20T11:05:11.560Z,101558.50
2023-01-20T11:07:38.382Z,101554.16
2023-01-20T11:10:16.312Z,101549.00
2023-01-20T11:12:46.320Z,101551.38
2023-01-20T11:15:26.733Z,101549.19
2023-01-20T11:18:22.906Z,101552.56
2023-01-20T11:20:54.179Z,101547.63
2023-01-20T11:23:33.240Z,101539.53
2023-01-20T11:26:02.483Z,101533.59
2023-01-20T11:28:38.458Z,101532.00
2023-01-20T11:31:06.349Z,101527.66
2023-01-20T11:33:33.404Z,101529.63
2023-01-20T11:36:17.223Z,101519.31
2023-01-20T11:38:47.206Z,101526.81
2023-01-20T11:41:25.375Z,101526.59
2023-01-20T11:43:55.900Z,101527.56
2023-01-20T11:46:31.861Z,101527.16
2023-01-20T11:49:22.598Z,101533.44
2023-01-20T11:51:56.836Z,101536.59
2023-01-20T11:54:29.232Z,101553.56
2023-01-20T11:57:01.764Z,101550.31
2023-01-20T11:59:30.810Z,101549.19
2023-01-20T12:02:02.159Z,101547.59
2023-01-20T12:04:51.736Z,101552.75
2023-01-20T12:07:28.363Z,101561.69
2023-01-20T12:10:04.885Z,101556.06
2023-01-20T12:12:44.612Z,101560.66
2023-01-20T12:15:22.719Z,101572.78
2023-01-20T12:17:56.497Z,101564.06
2023-01-20T12:20:55.476Z,101574.97
2023-01-20T12:23:46.090Z,101575.59
2023-01-20T12:26:15.265Z,101578.97
2023-01-20T12:29:07.642Z,101578.59
2023-01-20T12:31:34.716Z,101570.69
2023-01-20T12:34:05.989Z,101577.00
2023-01-20T12:36:38.794Z,101574.22
2023-01-20T12:39:42.093Z,101570.44
2023-01-20T12:42:42.365Z,101575.59
2023-01-20T12:45:39.811Z,101585.09
2023-01-20T12:48:25.037Z,101582.16
2023-01-20T12:51:28.796Z,101583.75
2023-01-20T12:54:14.117Z,101584.31
2023-01-20T12:56:59.695Z,101582.53
2023-01-20T13:00:01.752Z,101585.69
2023-01-20T13:02:53.601Z,101589.63
2023-01-20T13:05:57.477Z,101591.81
2023-01-20T13:08:52.592Z,101589.84
2023-01-20T13:11:43.618Z,101594.41
2023-01-20T13:14:41.610Z,101590.22
2023-01-20T13:17:30.125Z,101601.53
2023-01-20T13:19:59.646Z,101593.22
2023-01-20T13:22:26.505Z,101605.50
2023-01-20T13:25:05.104Z,101602.34
2023-01-20T13:27:37.746Z,101605.72
2023-01-20T13:30:08.115Z,101616.22
2023-01-20T13:32:46.180Z,101623.50
2023-01-20T13:35:16.282Z,101620.94
2023-01-20T13:37:59.325Z,101620.56
2023-01-20T13:40:38.488Z,101630.44
2023-01-20T13:43:26.556Z,101633.22
2023-01-20T13:46:08.573Z,101636.81
2023-01-20T13:48:38.120Z,101636.81
2023-01-20T13:51:26.911Z,101648.88
2023-01-20T13:53:56.999Z,101645.13
2023-01-20T13:56:35.122Z,101648.88
2023-01-20T13:59:02.040Z,101655.22
2023-01-20T14:01:29.151Z,101655.81
2023-01-20T14:04:07.726Z,101658.59
2023-01-20T14:06:36.282Z,101658.78
2023-01-20T14:09:07.865Z,101669.66
2023-01-20T14:11:36.148Z,101674.03
2023-01-20T14:14:09.843Z,101670.84
2023-01-20T14:16:38.898Z,101688.28
2023-01-20T14:19:19.806Z,101681.16
2023-01-20T14:21:53.290Z,101691.81
2023-01-20T14:24:44.184Z,101695.00
2023-01-20T14:27:17.012Z,101700.94
2023-01-20T14:29:44.841Z,101704.09
2023-01-20T14:32:32.483Z,101708.84
2023-01-20T14:35:00.708Z,101712.03
2023-01-20T14:37:36.861Z,101715.19
2023-01-20T14:40:23.253Z,101722.31
2023-01-20T14:43:22.746Z,101734.56
2023-01-20T14:45:51.988Z,101732.78
2023-01-20T14:48:33.343Z,101743.28
2023-01-20T14:51:35.863Z,101742.88
2023-01-20T14:54:37.838Z,101752.00
2023-01-20T14:57:28.288Z,101757.53
2023-01-20T15:00:21.087Z,101761.09
2023-01-20T15:06:01.750Z,101776.75
2023-01-20T15:08:35.692Z,101785.66
2023-01-20T15:11:22.824Z,101787.63
2023-01-20T15:13:58.062Z,101800.13
2023-01-20T15:16:52.668Z,101816.53
2023-01-20T15:19:32.219Z,101814.97
2023-01-20T15:22:20.959Z,101816.53
2023-01-20T15:24:49.803Z,101821.69
2023-01-20T15:27:26.108Z,101831.00
2023-01-20T15:30:13.796Z,101846.81
2023-01-20T15:32:44.409Z,101850.56
2023-01-20T15:35:13.699Z,101849.19
2023-01-20T15:37:43.556Z,101858.72
2023-01-20T15:40:17.364Z,101874.53
2023-01-20T15:42:45.192Z,101876.72
2023-01-20T15:45:17.414Z,101879.06
2023-01-20T15:47:47.172Z,101885.41
2023-01-20T15:50:24.617Z,101899.88
2023-01-20T15:52:51.703Z,101900.47
2023-01-20T15:55:20.322Z,101905.63
2023-01-20T15:57:51.494Z,101915.09
2023-01-20T16:00:21.547Z,101923.03
2023-01-20T16:02:48.801Z,101927.78
2023-01-20T16:05:17.697Z,101934.91
2023-01-20T16:07:47.764Z,101944.22
2023-01-20T16:10:19.152Z,101955.50
2023-01-20T16:12:48.117Z,101952.31
2023-01-20T16:15:17.289Z,101956.69
2023-01-20T16:17:44.661Z,101968.53
2023-01-20T16:20:24.131Z,101981.22
2023-01-20T16:22:51.843Z,101984.78
2023-01-20T16:25:22.135Z,101989.34
2023-01-20T16:27:49.199Z,101990.72
2023-01-20T16:30:18.522Z,102000.25
2023-01-20T16:32:46.836Z,102003.78
2023-01-20T16:35:15.516Z,102000.25
2023-01-20T16:37:44.729Z,102017.25
2023-01-20T16:40:18.142Z,102016.47
2023-01-20T16:42:46.034Z,102029.94
2023-01-20T16:45:31.718Z,102024.00
2023-01-20T16:47:58.852Z,102030.72
2023-01-20T16:50:28.660Z,102031.72
2023-01-20T16:52:55.996Z,102031.13
2023-01-20T16:55:26.067Z,102048.31
2023-01-20T16:57:53.433Z,102055.44
2023-01-20T17:00:21.509Z,102059.19
2023-01-20T17:02:53.047Z,102066.31
2023-01-20T17:05:22.951Z,102070.66
2023-01-20T17:07:50.481Z,102077.78
2023-01-20T17:10:18.501Z,102080.72
2023-01-20T17:12:47.995Z,102092.00
2023-01-20T17:15:16.003Z,102090.22
2023-01-20T17:17:48.495Z,102100.88
2023-01-20T17:20:16.290Z,102097.91
2023-01-20T17:22:43.595Z,102114.47
2023-01-20T17:25:11.370Z,102123.75
2023-01-20T17:27:38.640Z,102132.84
2023-01-20T17:30:08.377Z,102137.56
2023-01-20T17:32:36.148Z,102142.09
2023-01-20T17:35:04.418Z,102147.75
2023-01-20T17:37:31.495Z,102150.47
2023-01-20T17:40:00.620Z,102156.78
2023-01-20T17:42:27.555Z,102158.50
2023-01-20T17:44:54.580Z,102173.50
2023-01-20T17:47:21.520Z,102179.38
2023-01-20T17:49:48.433Z,102187.63
2023-01-20T17:52:15.288Z,102192.34
2023-01-20T17:54:42.298Z,102197.03
2023-01-20T17:57:09.331Z,102205.31
2023-01-20T17:59:36.338Z,102210.97
2023-01-20T18:02:03.243Z,102208.94
2023-01-20T18:04:30.456Z,102216.03
2023-01-20T18:06:57.421Z,102227.66
2023-01-20T18:09:24.320Z,102228.81
2023-01-20T18:11:51.251Z,102232.50
2023-01-20T18:14:18.036Z,102238.38
2023-01-20T18:16:45.055Z,102243.72
2023-01-20T18:19:14.252Z,102251.94
2023-01-20T18:21:43.901Z,102259.81
2023-01-20T18:24:12.095Z,102257.59
2023-01-20T18:26:42.801Z,102267.88
2023-01-20T18:29:15.182Z,102266.63
2023-01-20T18:31:42.900Z,102268.75
2023-01-20T18:34:12.403Z,102279.38
2023-01-20T18:36:41.486Z,102284.88
2023-01-20T18:39:16.638Z,102294.50
2023-01-20T18:41:44.177Z,102296.63
2023-01-20T18:44:11.676Z,102303.69
2023-01-20T18:46:38.825Z,102312.41
2023-01-20T18:49:09.480Z,102315.47
2023-01-20T18:51:37.070Z,102321.75
2023-01-20T18:54:10.601Z,102331.41
2023-01-20T18:56:37.906Z,102339.47
2023-01-20T18:59:06.199Z,102341.41
2023-01-20T19:01:35.615Z,102349.44
2023-01-20T19:04:04.917Z,102350.41
2023-01-20T19:06:36.009Z,102361.81
2023-01-20T19:09:07.147Z,102363.75
2023-01-20T19:11:36.525Z,102371.59
2023-01-20T19:14:04.215Z,102376.13
2023-01-20T19:16:34.633Z,102381.44
2023-01-20T19:19:06.496Z,102383.38
2023-01-20T19:21:36.351Z,102392.03
2023-01-20T19:24:06.237Z,102394.59
2023-01-20T19:26:35.972Z,102399.09
2023-01-20T19:29:06.404Z,102402.97
2023-01-20T19:31:36.536Z,102412.44
2023-01-20T19:34:04.105Z,102416.31
2023-01-20T19:36:31.426Z,102422.59
2023-01-20T19:38:58.802Z,102427.09
2023-01-20T19:41:28.351Z,102435.91
2023-01-20T19:43:57.707Z,102435.28
2023-01-20T19:46:28.226Z,102432.09
2023-01-20T19:48:57.620Z,102438.97
2023-01-20T19:51:25.826Z,102440.91
2023-01-20T19:53:58.227Z,102441.25
2023-01-20T19:56:28.088Z,102451.50
2023-01-20T19:58:55.315Z,102453.44
2023-01-20T20:01:35.958Z,102460.69
2023-01-20T20:04:08.410Z,102464.03
2023-01-20T20:06:44.699Z,102466.75
2023-01-20T20:09:19.451Z,102470.31
2023-01-20T20:11:47.529Z,102482.50
2023-01-20T20:14:17.596Z,102489.38
2023-01-20T20:16:45.183Z,102487.00
2023-01-20T20:19:15.909Z,102495.63
2023-01-20T20:21:46.765Z,102504.13
2023-01-20T20:24:15.687Z,102501.75
2023-01-20T20:26:44.633Z,102505.25
2023-01-20T20:29:13.037Z,102508.13
2023-01-20T20:31:40.875Z,102511.69
2023-01-20T20:34:11.192Z,102518.59
2023-01-20T20:36:39.708Z,102525.47
2023-01-20T20:39:08.023Z,102528.03
2023-01-20T20:41:36.791Z,102533.34
2023-01-20T20:44:04.726Z,102533.50
2023-01-20T20:46:32.291Z,102532.84
2023-01-20T20:49:01.099Z,102547.25
2023-01-20T20:51:33.440Z,102543.28
2023-01-20T20:54:02.450Z,102552.72
2023-01-20T20:56:31.917Z,102557.84
2023-01-20T20:59:02.520Z,102564.56
2023-01-20T21:01:33.145Z,102567.31
2023-01-20T21:04:00.870Z,102570.69
2023-01-20T21:06:28.471Z,102575.16
2023-01-20T21:08:55.484Z,102581.25
2023-01-20T21:11:24.253Z,102581.25
2023-01-20T21:13:52.578Z,102594.06
2023-01-20T21:16:23.407Z,102605.31
2023-01-20T21:18:52.484Z,102597.75
2023-01-20T21:21:20.653Z,102608.81
2023-01-20T21:23:52.563Z,102616.50
2023-01-20T21:26:20.291Z,102620.84
2023-01-20T21:28:49.532Z,102626.75
2023-01-20T21:31:21.096Z,102625.97
2023-01-20T21:33:53.773Z,102630.28
2023-01-20T21:36:22.814Z,102634.44
2023-01-20T21:38:50.791Z,102633.81
2023-01-20T21:41:19.085Z,102645.84
2023-01-20T21:44:05.547Z,102645.97
2023-01-20T21:46:38.259Z,102648.56
2023-01-20T21:49:23.891Z,102662.97
2023-01-20T21:52:09.685Z,102670.84
2023-01-20T21:54:36.708Z,102664.91
2023-01-20T21:57:03.597Z,102658.16
2023-01-20T21:59:30.780Z,102661.69
2023-01-20T22:01:57.810Z,102667.63
2023-01-20T22:04:24.961Z,102658.34
2023-01-20T22:06:51.877Z,102660.09
2023-01-20T22:09:18.863Z,102668.75
2023-01-20T22:11:45.712Z,102688.28
2023-01-20T22:14:12.652Z,102686.69
2023-01-20T22:16:39.627Z,102689.56
2023-01-20T22:19:06.691Z,102701.44
2023-01-20T22:21:33.930Z,102704.16
2023-01-20T22:24:03.911Z,102711.84
2023-01-20T22:26:31.187Z,102711.19
2023-01-20T22:28:59.450Z,102714.56
2023-01-20T22:31:26.403Z,102724.97
2023-01-20T22:33:55.238Z,102733.47
2023-01-20T22:36:24.009Z,102741.16
2023-01-20T22:38:52.476Z,102754.91
2023-01-20T22:41:20.625Z,102760.03
2023-01-20T22:43:48.369Z,102765.19
2023-01-20T22:46:20.624Z,102765.31
2023-01-20T22:48:47.660Z,102771.28
2023-01-20T22:51:20.062Z,102772.22
2023-01-20T22:53:47.233Z,102775.56
2023-01-20T22:56:17.055Z,102769.81
2023-01-20T22:58:45.110Z,102771.44
2023-01-20T23:01:14.789Z,102775.75
2023-01-20T23:03:42.136Z,102781.81
2023-01-20T23:06:09.836Z,102787.09
2023-01-20T23:08:37.063Z,102793.34
2023-01-20T23:11:29.063Z,102794.47
2023-01-20T23:13:55.933Z,102797.97
2023-01-20T23:16:26.148Z,102807.94
2023-01-20T23:18:53.308Z,102800.38
2023-01-20T23:21:20.919Z,102794.59
2023-01-20T23:26:53.472Z,102811.09
2023-01-20T23:30:01.761Z,102822.47
2023-01-20T23:32:28.611Z,102828.25
2023-01-20T23:37:39.212Z,102840.88
2023-01-20T23:40:06.480Z,102834.97
2023-01-20T23:42:34.105Z,102828.41
2023-01-20T23:45:00.944Z,102832.88
2023-01-20T23:50:23.127Z,102838.78
2023-01-20T23:52:50.135Z,102845.81
2023-01-20T23:55:22.075Z,102844.22
2023-01-20T23:57:48.933Z,102849.97
